sensor_id;sensor_type;location;lat;lon;timestamp;pressure;altitude;pressure_sealevel;temperature;humidity
12636;BME280;6383;50.830;7.210;2023-04-07T00:16:52;100649.88;;;10.32;80.26
12636;BME280;6383;50.830;7.210;2023-04-07T00:19:28;100647.66;;;10.34;80.35
12636;BME280;6383;50.830;7.210;2023-04-07T00:21:57;100642.44;;;10.37;80.58
12636;BME280;6383;50.830;7.210;2023-04-07T00:24:25;100644.06;;;10.38;80.50
12636;BME280;6383;50.830;7.210;2023-04-07T00:26:54;100647.28;;;10.40;81.41
12636;BME280;6383;50.830;7.210;2023-04-07T00:29:23;100644.25;;;10.42;80.67
12636;BME280;6383;50.830;7.210;2023-04-07T00:31:52;100638.81;;;10.42;80.70
12636;BME280;6383;50.830;7.210;2023-04-07T00:34:22;100649.91;;;10.45;81.08
12636;BME280;6383;50.830;7.210;2023-04-07T00:36:53;100644.47;;;10.45;81.45
12636;BME280;6383;50.830;7.210;2023-04-07T00:39:21;100637.13;;;10.46;82.06
12636;BME280;6383;50.830;7.210;2023-04-07T00:41:48;100632.50;;;10.46;82.12
12636;BME280;6383;50.830;7.210;2023-04-07T00:44:18;100633.81;;;10.49;82.08
12636;BME280;6383;50.830;7.210;2023-04-07T00:46:47;100624.53;;;10.50;82.19
12636;BME280;6383;50.830;7.210;2023-04-07T00:49:16;100628.06;;;10.50;82.28
12636;BME280;6383;50.830;7.210;2023-04-07T00:51:45;100627.78;;;10.52;82.27
12636;BME280;6383;50.830;7.210;2023-04-07T00:54:14;100624.75;;;10.53;82.13
12636;BME280;6383;50.830;7.210;2023-04-07T00:56:42;100623.97;;;10.53;82.26
12636;BME280;6383;50.830;7.210;2023-04-07T00:59:10;100623.63;;;10.54;81.59
12636;BME280;6383;50.830;7.210;2023-04-07T01:01:43;100622.53;;;10.55;82.30
12636;BME280;6383;50.830;7.210;2023-04-07T01:04:16;100616.78;;;10.57;82.14
12636;BME280;6383;50.830;7.210;2023-04-07T01:06:50;100613.25;;;10.56;81.91
12636;BME280;6383;50.830;7.210;2023-04-07T01:09:23;100614.06;;;10.57;82.76
12636;BME280;6383;50.830;7.210;2023-04-07T01:11:59;100607.53;;;10.58;81.88
12636;BME280;6383;50.830;7.210;2023-04-07T01:14:35;100614.06;;;10.57;82.83
12636;BME280;6383;50.830;7.210;2023-04-07T01:17:09;100617.31;;;10.59;82.76
12636;BME280;6383;50.830;7.210;2023-04-07T01:19:39;100618.91;;;10.60;83.28
12636;BME280;6383;50.830;7.210;2023-04-07T01:22:13;100609.34;;;10.63;83.80
12636;BME280;6383;50.830;7.210;2023-04-07T01:24:45;100605.81;;;10.62;81.53
12636;BME280;6383;50.830;7.210;2023-04-07T01:27:20;100611.25;;;10.62;83.28
12636;BME280;6383;50.830;7.210;2023-04-07T01:29:55;100608.25;;;10.64;82.82
12636;BME280;6383;50.830;7.210;2023-04-07T01:32:24;100605.81;;;10.62;82.05
12636;BME280;6383;50.830;7.210;2023-04-07T01:34:54;100609.66;;;10.61;83.24
12636;BME280;6383;50.830;7.210;2023-04-07T01:37:26;100605.81;;;10.62;82.54
12636;BME280;6383;50.830;7.210;2023-04-07T01:39:56;100607.13;;;10.65;83.70
12636;BME280;6383;50.830;7.210;2023-04-07T01:42:25;100599.50;;;10.67;83.80
12636;BME280;6383;50.830;7.210;2023-04-07T01:44:55;100601.59;;;10.70;83.40
12636;BME280;6383;50.830;7.210;2023-04-07T01:47:24;100604.81;;;10.72;83.48
12636;BME280;6383;50.830;7.210;2023-04-07T01:49:53;100602.44;;;11.11;84.18
12636;BME280;6383;50.830;7.210;2023-04-07T01:52:23;100607.69;;;11.08;83.33
12636;BME280;6383;50.830;7.210;2023-04-07T01:54:53;100611.44;;;10.98;82.37
12636;BME280;6383;50.830;7.210;2023-04-07T01:57:20;100599.59;;;10.89;81.49
12636;BME280;6383;50.830;7.210;2023-04-07T01:59:49;100600.50;;;10.84;83.43
12636;BME280;6383;50.830;7.210;2023-04-07T02:02:17;100603.22;;;10.84;82.84
12636;BME280;6383;50.830;7.210;2023-04-07T02:04:51;100600.50;;;10.84;83.44
12636;BME280;6383;50.830;7.210;2023-04-07T02:07:31;100600.50;;;10.84;84.27
12636;BME280;6383;50.830;7.210;2023-04-07T02:10:04;100593.13;;;10.85;83.41
12636;BME280;6383;50.830;7.210;2023-04-07T02:12:36;100599.41;;;10.85;83.89
12636;BME280;6383;50.830;7.210;2023-04-07T02:15:06;100597.47;;;10.86;83.96
12636;BME280;6383;50.830;7.210;2023-04-07T02:17:40;100590.41;;;10.85;84.47
12636;BME280;6383;50.830;7.210;2023-04-07T02:20:09;100594.56;;;10.82;83.81
12636;BME280;6383;50.830;7.210;2023-04-07T02:22:38;100593.25;;;10.80;84.29
12636;BME280;6383;50.830;7.210;2023-04-07T02:25:20;100601.72;;;10.78;84.32
12636;BME280;6383;50.830;7.210;2023-04-07T02:27:49;100600.91;;;10.78;83.53
12636;BME280;6383;50.830;7.210;2023-04-07T02:30:18;100607.16;;;10.78;84.17
12636;BME280;6383;50.830;7.210;2023-04-07T02:32:47;100602.22;;;10.80;84.20
12636;BME280;6383;50.830;7.210;2023-04-07T02:35:15;100604.66;;;10.82;84.67
12636;BME280;6383;50.830;7.210;2023-04-07T02:37:43;100607.06;;;10.83;84.63
12636;BME280;6383;50.830;7.210;2023-04-07T02:40:11;100604.03;;;10.85;84.41
12636;BME280;6383;50.830;7.210;2023-04-07T02:42:39;100602.91;;;10.86;84.20
12636;BME280;6383;50.830;7.210;2023-04-07T02:45:09;100602.63;;;10.87;85.22
12636;BME280;6383;50.830;7.210;2023-04-07T02:47:38;100608.88;;;10.88;84.66
12636;BME280;6383;50.830;7.210;2023-04-07T02:50:08;100608.59;;;10.89;84.34
12636;BME280;6383;50.830;7.210;2023-04-07T02:52:36;100599.59;;;10.89;84.85
12636;BME280;6383;50.830;7.210;2023-04-07T02:55:05;100608.59;;;10.89;84.30
12636;BME280;6383;50.830;7.210;2023-04-07T02:57:34;100601.53;;;10.88;84.74
12636;BME280;6383;50.830;7.210;2023-04-07T03:00:03;100609.38;;;10.90;84.43
12636;BME280;6383;50.830;7.210;2023-04-07T03:02:32;100609.09;;;10.91;84.98
12636;BME280;6383;50.830;7.210;2023-04-07T03:05:02;100605.25;;;10.92;84.72
12636;BME280;6383;50.830;7.210;2023-04-07T03:07:32;100601.44;;;10.93;84.98
12636;BME280;6383;50.830;7.210;2023-04-07T03:09:59;100609.31;;;10.95;85.00
12636;BME280;6383;50.830;7.210;2023-04-07T03:12:28;100604.44;;;11.33;85.02
12636;BME280;6383;50.830;7.210;2023-04-07T03:14:57;100603.44;;;11.29;84.89
12636;BME280;6383;50.830;7.210;2023-04-07T03:17:26;100612.03;;;11.22;85.10
12636;BME280;6383;50.830;7.210;2023-04-07T03:19:55;100599.00;;;11.19;84.72
12636;BME280;6383;50.830;7.210;2023-04-07T03:22:24;100608.28;;;11.18;84.67
12636;BME280;6383;50.830;7.210;2023-04-07T03:24:54;100609.69;;;11.16;84.63
12636;BME280;6383;50.830;7.210;2023-04-07T03:27:22;100607.28;;;11.14;84.30
12636;BME280;6383;50.830;7.210;2023-04-07T03:29:52;100608.38;;;11.13;85.11
12636;BME280;6383;50.830;7.210;2023-04-07T03:32:21;100601.34;;;11.12;84.79
12636;BME280;6383;50.830;7.210;2023-04-07T03:34:48;100602.44;;;11.11;84.96
12636;BME280;6383;50.830;7.210;2023-04-07T03:37:15;100610.91;;;11.10;85.35
12636;BME280;6383;50.830;7.210;2023-04-07T03:39:45;100603.56;;;11.10;85.04
12636;BME280;6383;50.830;7.210;2023-04-07T03:42:15;100603.56;;;11.10;85.67
12636;BME280;6383;50.830;7.210;2023-04-07T03:44:44;100610.13;;;11.09;85.53
12636;BME280;6383;50.830;7.210;2023-04-07T03:47:13;100605.78;;;11.08;84.76
12636;BME280;6383;50.830;7.210;2023-04-07T03:49:40;100597.59;;;11.08;85.57
12636;BME280;6383;50.830;7.210;2023-04-07T03:52:10;100608.72;;;11.12;85.53
12636;BME280;6383;50.830;7.210;2023-04-07T03:54:39;100605.97;;;11.12;84.94
12636;BME280;6383;50.830;7.210;2023-04-07T03:57:08;100603.25;;;11.12;85.44
12636;BME280;6383;50.830;7.210;2023-04-07T03:59:39;100604.38;;;11.11;85.46
12636;BME280;6383;50.830;7.210;2023-04-07T04:02:08;100605.47;;;11.10;85.34
12636;BME280;6383;50.830;7.210;2023-04-07T04:04:36;100610.13;;;11.09;85.31
12636;BME280;6383;50.830;7.210;2023-04-07T04:07:04;100614.75;;;11.09;85.54
12636;BME280;6383;50.830;7.210;2023-04-07T04:09:32;100612.53;;;11.11;85.69
12636;BME280;6383;50.830;7.210;2023-04-07T04:12:01;100613.66;;;11.10;85.85
12636;BME280;6383;50.830;7.210;2023-04-07T04:14:30;100615.56;;;11.23;85.12
12636;BME280;6383;50.830;7.210;2023-04-07T04:17:00;100622.03;;;11.27;85.63
12636;BME280;6383;50.830;7.210;2023-04-07T04:19:29;100619.31;;;11.27;84.76
12636;BME280;6383;50.830;7.210;2023-04-07T04:21:58;100622.50;;;11.29;85.49
12636;BME280;6383;50.830;7.210;2023-04-07T04:24:26;100625.22;;;11.29;84.80
12636;BME280;6383;50.830;7.210;2023-04-07T04:26:55;100625.22;;;11.29;85.16
12636;BME280;6383;50.830;7.210;2023-04-07T04:29:22;100627.94;;;11.29;84.76
12636;BME280;6383;50.830;7.210;2023-04-07T04:31:51;100622.84;;;11.27;84.69
12636;BME280;6383;50.830;7.210;2023-04-07T04:34:22;100622.84;;;11.27;85.00
12636;BME280;6383;50.830;7.210;2023-04-07T04:36:51;100633.72;;;11.27;84.99
12636;BME280;6383;50.830;7.210;2023-04-07T04:39:20;100631.78;;;11.28;85.44
12636;BME280;6383;50.830;7.210;2023-04-07T04:41:49;100638.38;;;11.27;85.19
12636;BME280;6383;50.830;7.210;2023-04-07T04:44:17;100634.03;;;11.26;84.66
12636;BME280;6383;50.830;7.210;2023-04-07T04:46:47;100640.59;;;11.25;84.85
12636;BME280;6383;50.830;7.210;2023-04-07T04:49:15;100640.38;;;11.21;85.01
12636;BME280;6383;50.830;7.210;2023-04-07T04:51:46;100641.78;;;11.19;85.60
12636;BME280;6383;50.830;7.210;2023-04-07T04:54:17;100642.91;;;11.18;85.29
12636;BME280;6383;50.830;7.210;2023-04-07T04:56:46;100644.28;;;11.15;85.88
12636;BME280;6383;50.830;7.210;2023-04-07T04:59:14;100656.63;;;11.40;87.28
12636;BME280;6383;50.830;7.210;2023-04-07T05:01:43;100657.13;;;11.42;85.42
12636;BME280;6383;50.830;7.210;2023-04-07T05:04:12;100658.44;;;11.31;85.80
12636;BME280;6383;50.830;7.210;2023-04-07T05:06:41;100652.00;;;11.27;85.26
12636;BME280;6383;50.830;7.210;2023-04-07T05:09:11;100659.97;;;11.23;85.64
12636;BME280;6383;50.830;7.210;2023-04-07T05:11:40;100659.75;;;11.47;86.88
12636;BME280;6383;50.830;7.210;2023-04-07T05:14:09;100663.56;;;11.46;86.75
12636;BME280;6383;50.830;7.210;2023-04-07T05:16:38;100667.53;;;11.40;86.44
12636;BME280;6383;50.830;7.210;2023-04-07T05:19:07;100662.16;;;11.62;86.64
12636;BME280;6383;50.830;7.210;2023-04-07T05:21:36;100671.22;;;11.58;85.66
12636;BME280;6383;50.830;7.210;2023-04-07T05:24:05;100673.56;;;11.51;85.68
12636;BME280;6383;50.830;7.210;2023-04-07T05:26:34;100673.50;;;11.42;84.99
12636;BME280;6383;50.830;7.210;2023-04-07T05:29:02;100670.06;;;11.37;85.10
12636;BME280;6383;50.830;7.210;2023-04-07T05:31:29;100664.19;;;11.29;85.70
12636;BME280;6383;50.830;7.210;2023-04-07T05:34:00;100660.75;;;11.24;86.61
12636;BME280;6383;50.830;7.210;2023-04-07T05:36:29;100671.44;;;11.20;86.43
12636;BME280;6383;50.830;7.210;2023-04-07T05:38:56;100676.69;;;11.17;86.20
12636;BME280;6383;50.830;7.210;2023-04-07T05:41:25;100671.03;;;11.13;86.02
12636;BME280;6383;50.830;7.210;2023-04-07T05:43:55;100671.66;;;11.10;86.20
12636;BME280;6383;50.830;7.210;2023-04-07T05:46:22;100679.31;;;11.08;85.94
12636;BME280;6383;50.830;7.210;2023-04-07T05:48:52;100673.06;;;11.08;86.26
12636;BME280;6383;50.830;7.210;2023-04-07T05:51:20;100678.50;;;11.08;86.11
12636;BME280;6383;50.830;7.210;2023-04-07T05:53:49;100677.69;;;11.07;86.43
12636;BME280;6383;50.830;7.210;2023-04-07T05:56:17;100678.81;;;11.06;86.85
12636;BME280;6383;50.830;7.210;2023-04-07T05:58:45;100686.16;;;11.06;86.77
12636;BME280;6383;50.830;7.210;2023-04-07T06:01:16;100695.94;;;11.07;86.55
12636;BME280;6383;50.830;7.210;2023-04-07T06:03:45;100697.06;;;11.06;86.09
12636;BME280;6383;50.830;7.210;2023-04-07T06:06:14;100696.56;;;11.04;85.85
12636;BME280;6383;50.830;7.210;2023-04-07T06:08:43;100697.94;;;11.01;86.24
12636;BME280;6383;50.830;7.210;2023-04-07T06:11:12;100701.47;;;11.02;85.99
12636;BME280;6383;50.830;7.210;2023-04-07T06:13:41;100698.75;;;11.02;86.32
12636;BME280;6383;50.830;7.210;2023-04-07T06:16:09;100703.41;;;11.01;86.30
12636;BME280;6383;50.830;7.210;2023-04-07T06:18:38;100702.59;;;11.01;86.89
12636;BME280;6383;50.830;7.210;2023-04-07T06:21:07;100706.13;;;11.01;86.20
12636;BME280;6383;50.830;7.210;2023-04-07T06:23:35;100704.19;;;11.02;85.27
12636;BME280;6383;50.830;7.210;2023-04-07T06:26:04;100710.75;;;11.01;85.61
12636;BME280;6383;50.830;7.210;2023-04-07T06:28:35;100711.06;;;10.99;85.61
12636;BME280;6383;50.830;7.210;2023-04-07T06:31:03;100711.06;;;10.99;85.71
12636;BME280;6383;50.830;7.210;2023-04-07T06:33:32;100705.13;;;10.97;85.71
12636;BME280;6383;50.830;7.210;2023-04-07T06:36:01;100716.00;;;10.97;86.20
12636;BME280;6383;50.830;7.210;2023-04-07T06:38:30;100714.41;;;10.96;85.54
12636;BME280;6383;50.830;7.210;2023-04-07T06:40:58;100717.41;;;10.94;85.12
12636;BME280;6383;50.830;7.210;2023-04-07T06:43:25;100718.81;;;10.92;85.33
12636;BME280;6383;50.830;7.210;2023-04-07T06:45:52;100727.00;;;10.92;85.91
12636;BME280;6383;50.830;7.210;2023-04-07T06:48:19;100734.34;;;10.91;85.64
12636;BME280;6383;50.830;7.210;2023-04-07T06:50:49;100723.75;;;10.90;85.54
12636;BME280;6383;50.830;7.210;2023-04-07T06:53:19;100725.66;;;10.89;86.59
12636;BME280;6383;50.830;7.210;2023-04-07T06:55:47;100735.75;;;10.89;86.72
12636;BME280;6383;50.830;7.210;2023-04-07T06:58:16;100740.38;;;10.88;85.99
12636;BME280;6383;50.830;7.210;2023-04-07T07:00:45;100739.56;;;10.88;86.04
12636;BME280;6383;50.830;7.210;2023-04-07T07:03:14;100742.59;;;10.86;85.95
12636;BME280;6383;50.830;7.210;2023-04-07T07:05:43;100742.59;;;10.86;85.73
12636;BME280;6383;50.830;7.210;2023-04-07T07:08:13;100748.03;;;10.86;86.35
12636;BME280;6383;50.830;7.210;2023-04-07T07:10:43;100748.03;;;10.86;85.89
12636;BME280;6383;50.830;7.210;2023-04-07T07:13:12;100744.78;;;10.84;86.90
12636;BME280;6383;50.830;7.210;2023-04-07T07:15:40;100745.91;;;10.83;86.13
12636;BME280;6383;50.830;7.210;2023-04-07T07:18:09;100752.16;;;10.84;87.08
12636;BME280;6383;50.830;7.210;2023-04-07T07:20:37;100751.88;;;10.85;86.81
12636;BME280;6383;50.830;7.210;2023-04-07T07:23:05;100754.59;;;10.85;86.33
12636;BME280;6383;50.830;7.210;2023-04-07T07:25:35;100760.84;;;10.86;86.57
12636;BME280;6383;50.830;7.210;2023-04-07T07:28:04;100762.75;;;10.85;86.65
12636;BME280;6383;50.830;7.210;2023-04-07T07:30:32;100765.78;;;10.84;87.43
12636;BME280;6383;50.830;7.210;2023-04-07T07:33:01;100771.72;;;10.86;87.07
12636;BME280;6383;50.830;7.210;2023-04-07T07:35:30;100776.66;;;10.84;86.71
12636;BME280;6383;50.830;7.210;2023-04-07T07:37:59;100767.38;;;10.85;86.55
12636;BME280;6383;50.830;7.210;2023-04-07T07:40:28;100776.38;;;10.85;87.22
12636;BME280;6383;50.830;7.210;2023-04-07T07:42:57;100781.81;;;10.85;87.17
12636;BME280;6383;50.830;7.210;2023-04-07T07:45:26;100770.41;;;10.83;86.56
12636;BME280;6383;50.830;7.210;2023-04-07T07:47:54;100775.84;;;10.83;85.98
12636;BME280;6383;50.830;7.210;2023-04-07T07:50:23;100780.19;;;10.84;86.62
12636;BME280;6383;50.830;7.210;2023-04-07T07:52:52;100784.53;;;10.85;87.54
12636;BME280;6383;50.830;7.210;2023-04-07T07:55:20;100788.88;;;10.86;86.92
12636;BME280;6383;50.830;7.210;2023-04-07T07:57:49;100787.78;;;10.87;86.78
12636;BME280;6383;50.830;7.210;2023-04-07T08:00:18;100791.31;;;10.88;86.72
12636;BME280;6383;50.830;7.210;2023-04-07T08:02:49;100792.13;;;10.88;87.24
12636;BME280;6383;50.830;7.210;2023-04-07T08:05:18;100801.09;;;10.89;86.77
12636;BME280;6383;50.830;7.210;2023-04-07T08:07:47;100798.38;;;10.89;87.14
12636;BME280;6383;50.830;7.210;2023-04-07T08:10:16;100801.09;;;10.89;87.62
12636;BME280;6383;50.830;7.210;2023-04-07T08:12:46;100801.91;;;10.89;87.28
12636;BME280;6383;50.830;7.210;2023-04-07T08:15:16;100808.97;;;10.90;87.04
12636;BME280;6383;50.830;7.210;2023-04-07T08:17:45;100808.16;;;10.90;87.22
12636;BME280;6383;50.830;7.210;2023-04-07T08:20:15;100809.78;;;10.91;87.15
12636;BME280;6383;50.830;7.210;2023-04-07T08:22:44;100812.50;;;10.91;86.79
12636;BME280;6383;50.830;7.210;2023-04-07T08:25:13;100815.75;;;10.93;87.06
12636;BME280;6383;50.830;7.210;2023-04-07T08:27:42;100819.28;;;10.93;87.39
12636;BME280;6383;50.830;7.210;2023-04-07T08:30:10;100807.56;;;10.93;87.08
12636;BME280;6383;50.830;7.210;2023-04-07T08:32:48;100820.09;;;10.94;86.69
12636;BME280;6383;50.830;7.210;2023-04-07T08:35:16;100817.06;;;10.95;87.35
12636;BME280;6383;50.830;7.210;2023-04-07T08:37:45;100821.41;;;10.97;87.40
12636;BME280;6383;50.830;7.210;2023-04-07T08:40:14;100823.03;;;10.98;86.96
12636;BME280;6383;50.830;7.210;2023-04-07T08:42:45;100832.00;;;10.98;86.71
12636;BME280;6383;50.830;7.210;2023-04-07T08:45:16;100831.69;;;11.00;87.15
12636;BME280;6383;50.830;7.210;2023-04-07T08:47:46;100827.88;;;11.01;87.03
12636;BME280;6383;50.830;7.210;2023-04-07T08:50:26;100830.00;;;11.04;86.85
12636;BME280;6383;50.830;7.210;2023-04-07T08:52:56;100824.56;;;11.04;86.74
12636;BME280;6383;50.830;7.210;2023-04-07T08:55:25;100825.59;;;11.08;87.37
12636;BME280;6383;50.830;7.210;2023-04-07T08:57:53;100829.63;;;11.10;87.58
12636;BME280;6383;50.830;7.210;2023-04-07T09:00:22;100833.97;;;11.11;87.38
12636;BME280;6383;50.830;7.210;2023-04-07T09:02:50;100834.47;;;11.13;87.51
12636;BME280;6383;50.830;7.210;2023-04-07T09:05:20;100834.97;;;11.15;86.83
12636;BME280;6383;50.830;7.210;2023-04-07T09:07:51;100837.41;;;11.17;87.85
12636;BME280;6383;50.830;7.210;2023-04-07T09:10:20;100836.31;;;11.18;87.36
12636;BME280;6383;50.830;7.210;2023-04-07T09:12:49;100839.53;;;11.20;87.72
12636;BME280;6383;50.830;7.210;2023-04-07T09:15:19;100848.53;;;11.20;87.34
12636;BME280;6383;50.830;7.210;2023-04-07T09:17:47;100844.69;;;11.21;86.56
12636;BME280;6383;50.830;7.210;2023-04-07T09:20:15;100850.16;;;11.21;86.95
12636;BME280;6383;50.830;7.210;2023-04-07T09:22:44;100847.44;;;11.21;87.06
12636;BME280;6383;50.830;7.210;2023-04-07T09:25:16;100848.53;;;11.20;87.44
12636;BME280;6383;50.830;7.210;2023-04-07T09:27:56;100845.50;;;11.22;86.42
12636;BME280;6383;50.830;7.210;2023-04-07T09:30:26;100857.50;;;11.21;86.53
12636;BME280;6383;50.830;7.210;2023-04-07T09:32:55;100856.41;;;11.22;85.96
12636;BME280;6383;50.830;7.210;2023-04-07T09:35:24;100859.94;;;11.22;86.69
12636;BME280;6383;50.830;7.210;2023-04-07T09:38:02;100858.84;;;11.23;85.78
12636;BME280;6383;50.830;7.210;2023-04-07T09:40:31;100859.66;;;11.24;85.86
12636;BME280;6383;50.830;7.210;2023-04-07T09:43:02;100859.34;;;11.25;86.60
12636;BME280;6383;50.830;7.210;2023-04-07T09:45:32;100852.00;;;11.26;86.42
12636;BME280;6383;50.830;7.210;2023-04-07T09:48:04;100852.47;;;11.28;87.08
12636;BME280;6383;50.830;7.210;2023-04-07T09:50:35;100861.16;;;11.30;86.30
12636;BME280;6383;50.830;7.210;2023-04-07T09:53:04;100861.69;;;11.32;86.42
12636;BME280;6383;50.830;7.210;2023-04-07T09:55:35;100862.50;;;11.32;86.44
12636;BME280;6383;50.830;7.210;2023-04-07T09:58:05;100855.66;;;11.35;87.13
12636;BME280;6383;50.830;7.210;2023-04-07T10:00:36;100860.50;;;11.38;87.13
12636;BME280;6383;50.830;7.210;2023-04-07T10:03:06;100860.50;;;11.38;87.07
12636;BME280;6383;50.830;7.210;2023-04-07T10:05:36;100860.50;;;11.38;86.88
12636;BME280;6383;50.830;7.210;2023-04-07T10:08:05;100868.09;;;11.41;87.21
12636;BME280;6383;50.830;7.210;2023-04-07T10:10:39;100858.00;;;11.42;87.26
12636;BME280;6383;50.830;7.210;2023-04-07T10:13:07;100861.53;;;11.42;86.84
12636;BME280;6383;50.830;7.210;2023-04-07T10:15:35;100865.03;;;11.43;86.79
12636;BME280;6383;50.830;7.210;2023-04-07T10:18:06;100874.84;;;11.44;86.83
12636;BME280;6383;50.830;7.210;2023-04-07T10:20:38;100873.44;;;11.46;87.35
12636;BME280;6383;50.830;7.210;2023-04-07T10:23:12;100873.13;;;11.48;87.09
12636;BME280;6383;50.830;7.210;2023-04-07T10:25:44;100874.75;;;11.49;86.99
12636;BME280;6383;50.830;7.210;2023-04-07T10:28:16;100874.16;;;11.52;87.53
12636;BME280;6383;50.830;7.210;2023-04-07T10:30:46;100875.50;;;11.54;87.06
12636;BME280;6383;50.830;7.210;2023-04-07T10:33:16;100874.91;;;11.57;87.88
12636;BME280;6383;50.830;7.210;2023-04-07T10:36:03;100877.50;;;11.62;87.46
12636;BME280;6383;50.830;7.210;2023-04-07T10:38:32;100883.78;;;11.63;87.68
12636;BME280;6383;50.830;7.210;2023-04-07T10:41:30;100886.44;;;11.68;86.72
12636;BME280;6383;50.830;7.210;2023-04-07T10:44:00;100894.38;;;11.64;87.58
12636;BME280;6383;50.830;7.210;2023-04-07T10:47:01;100884.50;;;11.69;86.30
12636;BME280;6383;50.830;7.210;2023-04-07T10:49:31;100885.09;;;11.65;87.06
12636;BME280;6383;50.830;7.210;2023-04-07T10:52:20;100891.88;;;11.68;87.00
12636;BME280;6383;50.830;7.210;2023-04-07T10:58:31;100888.63;;;11.66;86.27
12636;BME280;6383;50.830;7.210;2023-04-07T11:01:19;100894.91;;;11.66;86.84
12636;BME280;6383;50.830;7.210;2023-04-07T11:03:53;100896.31;;;11.64;86.79
12636;BME280;6383;50.830;7.210;2023-04-07T11:06:23;100895.78;;;11.62;86.55
12636;BME280;6383;50.830;7.210;2023-04-07T11:08:53;100887.91;;;11.60;86.98
12636;BME280;6383;50.830;7.210;2023-04-07T11:11:36;100890.94;;;11.59;86.61
12636;BME280;6383;50.830;7.210;2023-04-07T11:14:07;100897.50;;;11.58;87.25
12636;BME280;6383;50.830;7.210;2023-04-07T11:16:41;100896.72;;;11.57;86.86
12636;BME280;6383;50.830;7.210;2023-04-07T11:19:12;100904.56;;;11.59;87.05
12636;BME280;6383;50.830;7.210;2023-04-07T11:21:41;100910.22;;;11.62;87.46
12636;BME280;6383;50.830;7.210;2023-04-07T11:24:08;100908.03;;;11.64;87.32
12636;BME280;6383;50.830;7.210;2023-04-07T11:26:38;100906.91;;;11.65;87.53
12636;BME280;6383;50.830;7.210;2023-04-07T11:29:08;100909.63;;;11.65;86.62
12636;BME280;6383;50.830;7.210;2023-04-07T11:31:37;100916.72;;;11.66;86.94
12636;BME280;6383;50.830;7.210;2023-04-07T11:34:06;100922.16;;;11.66;86.60
12636;BME280;6383;50.830;7.210;2023-04-07T11:36:38;100920.84;;;11.64;86.73
12636;BME280;6383;50.830;7.210;2023-04-07T11:39:17;100919.81;;;11.60;86.17
12636;BME280;6383;50.830;7.210;2023-04-07T11:41:49;100916.91;;;11.56;87.05
12636;BME280;6383;50.830;7.210;2023-04-07T11:44:19;100924.25;;;11.56;87.04
12636;BME280;6383;50.830;7.210;2023-04-07T11:46:52;100915.78;;;11.57;87.11
12636;BME280;6383;50.830;7.210;2023-04-07T11:49:22;100924.75;;;11.58;86.84
12636;BME280;6383;50.830;7.210;2023-04-07T11:52:00;100932.16;;;11.57;86.94
12636;BME280;6383;50.830;7.210;2023-04-07T11:54:39;100929.41;;;11.57;87.20
12636;BME280;6383;50.830;7.210;2023-04-07T11:57:07;100935.66;;;11.58;87.17
12636;BME280;6383;50.830;7.210;2023-04-07T11:59:38;100935.66;;;11.58;86.89
12636;BME280;6383;50.830;7.210;2023-04-07T12:02:07;100938.69;;;11.56;87.51
12636;BME280;6383;50.830;7.210;2023-04-07T12:04:36;100940.63;;;11.56;87.47
12636;BME280;6383;50.830;7.210;2023-04-07T12:07:08;100945.44;;;11.59;86.74
12636;BME280;6383;50.830;7.210;2023-04-07T12:09:37;100943.84;;;11.58;87.09
12636;BME280;6383;50.830;7.210;2023-04-07T12:12:07;100948.19;;;11.59;87.18
12636;BME280;6383;50.830;7.210;2023-04-07T12:14:38;100944.06;;;11.61;87.50
12636;BME280;6383;50.830;7.210;2023-04-07T12:17:19;100944.56;;;11.63;87.55
12636;BME280;6383;50.830;7.210;2023-04-07T12:19:48;100947.81;;;11.65;87.71
12636;BME280;6383;50.830;7.210;2023-04-07T12:22:17;100949.94;;;11.69;87.45
12636;BME280;6383;50.830;7.210;2023-04-07T12:24:46;100951.28;;;11.71;87.33
12636;BME280;6383;50.830;7.210;2023-04-07T12:27:15;100954.81;;;11.72;87.21
12636;BME280;6383;50.830;7.210;2023-04-07T12:29:46;100954.00;;;11.71;87.03
12636;BME280;6383;50.830;7.210;2023-04-07T12:32:15;100958.34;;;11.72;87.30
12636;BME280;6383;50.830;7.210;2023-04-07T12:34:44;100958.03;;;11.74;86.80
12636;BME280;6383;50.830;7.210;2023-04-07T12:37:14;100958.84;;;11.74;87.10
12636;BME280;6383;50.830;7.210;2023-04-07T12:39:43;100949.28;;;11.77;87.29
12636;BME280;6383;50.830;7.210;2023-04-07T12:42:12;100957.16;;;11.78;86.81
12636;BME280;6383;50.830;7.210;2023-04-07T12:44:41;100966.66;;;11.81;86.78
12636;BME280;6383;50.830;7.210;2023-04-07T12:47:10;100960.41;;;11.80;86.82
12636;BME280;6383;50.830;7.210;2023-04-07T12:49:39;100965.88;;;11.80;86.41
12636;BME280;6383;50.830;7.210;2023-04-07T12:52:07;100970.50;;;11.80;86.91
12636;BME280;6383;50.830;7.210;2023-04-07T12:54:36;100968.28;;;11.82;86.63
12636;BME280;6383;50.830;7.210;2023-04-07T12:57:05;100966.38;;;11.82;86.78
12636;BME280;6383;50.830;7.210;2023-04-07T12:59:34;100971.25;;;11.85;86.91
12636;BME280;6383;50.830;7.210;2023-04-07T13:02:04;100970.63;;;11.88;86.85
12636;BME280;6383;50.830;7.210;2023-04-07T13:04:34;100970.84;;;11.92;87.14
12636;BME280;6383;50.830;7.210;2023-04-07T13:07:07;100971.94;;;11.91;86.86
12636;BME280;6383;50.830;7.210;2023-04-07T13:09:36;100970.63;;;11.88;87.04
12636;BME280;6383;50.830;7.210;2023-04-07T13:12:05;100975.78;;;11.90;86.33
12636;BME280;6383;50.830;7.210;2023-04-07T13:14:34;100973.06;;;11.90;86.40
12636;BME280;6383;50.830;7.210;2023-04-07T13:17:04;100980.94;;;11.91;86.72
12636;BME280;6383;50.830;7.210;2023-04-07T13:19:35;100977.09;;;11.92;86.43
12636;BME280;6383;50.830;7.210;2023-04-07T13:22:05;100966.19;;;11.92;86.45
12636;BME280;6383;50.830;7.210;2023-04-07T13:24:34;100970.84;;;11.92;86.09
12636;BME280;6383;50.830;7.210;2023-04-07T13:27:03;100974.09;;;11.94;86.19
12636;BME280;6383;50.830;7.210;2023-04-07T13:29:32;100972.97;;;11.95;86.75
12636;BME280;6383;50.830;7.210;2023-04-07T13:32:05;100974.09;;;11.94;85.96
12636;BME280;6383;50.830;7.210;2023-04-07T13:34:36;100974.38;;;11.92;85.90